sensor_id;sensor_type;location;lat;lon;timestamp;P1;durP1;ratioP1;P2;durP2;ratioP2
5710;SDS011;61291;52.524;13.422;2023-07-22T00:00:53;218.23;;;201.57;;
5710;SDS011;61291;52.524;13.422;2023-07-22T00:03:19;206.07;;;190.17;;
5710;SDS011;61291;52.524;13.422;2023-07-22T00:05:44;201.87;;;186.27;;
5710;SDS011;61291;52.524;13.422;2023-07-22T00:08:10;229.17;;;211.63;;
5710;SDS011;61291;52.524;13.422;2023-07-22T00:10:35;220.67;;;203.03;;
5710;SDS011;61291;52.524;13.422;2023-07-22T00:13:05;172.15;;;157.68;;
5710;SDS011;61291;52.524;13.422;2023-07-22T00:15:32;205.27;;;188.93;;
5710;SDS011;61291;52.524;13.422;2023-07-22T00:17:57;218.90;;;202.03;;
5710;SDS011;61291;52.524;13.422;2023-07-22T00:20:23;212.27;;;195.57;;
5710;SDS011;61291;52.524;13.422;2023-07-22T00:22:50;206.60;;;190.10;;
5710;SDS011;61291;52.524;13.422;2023-07-22T00:25:17;195.00;;;179.23;;
5710;SDS011;61291;52.524;13.422;2023-07-22T00:27:43;193.53;;;178.30;;
5710;SDS011;61291;52.524;13.422;2023-07-22T00:30:08;202.37;;;186.03;;
5710;SDS011;61291;52.524;13.422;2023-07-22T00:32:34;192.33;;;177.20;;
5710;SDS011;61291;52.524;13.422;2023-07-22T00:35:04;199.30;;;183.73;;
5710;SDS011;61291;52.524;13.422;2023-07-22T00:37:30;189.53;;;173.47;;
5710;SDS011;61291;52.524;13.422;2023-07-22T00:39:56;212.33;;;193.97;;
5710;SDS011;61291;52.524;13.422;2023-07-22T00:42:21;196.57;;;180.63;;
5710;SDS011;61291;52.524;13.422;2023-07-22T00:44:47;179.13;;;163.43;;
5710;SDS011;61291;52.524;13.422;2023-07-22T00:47:12;172.57;;;158.17;;
5710;SDS011;61291;52.524;13.422;2023-07-22T00:49:38;173.67;;;158.97;;
5710;SDS011;61291;52.524;13.422;2023-07-22T00:52:04;180.80;;;165.97;;
5710;SDS011;61291;52.524;13.422;2023-07-22T00:54:31;180.43;;;165.50;;
5710;SDS011;61291;52.524;13.422;2023-07-22T00:56:56;194.97;;;179.07;;
5710;SDS011;61291;52.524;13.422;2023-07-22T00:59:22;184.97;;;170.67;;
5710;SDS011;61291;52.524;13.422;2023-07-22T01:01:49;177.27;;;162.67;;
5710;SDS011;61291;52.524;13.422;2023-07-22T01:04:14;180.30;;;165.23;;
5710;SDS011;61291;52.524;13.422;2023-07-22T01:06:42;190.43;;;174.83;;
5710;SDS011;61291;52.524;13.422;2023-07-22T01:09:09;181.40;;;166.23;;
5710;SDS011;61291;52.524;13.422;2023-07-22T01:11:35;182.50;;;167.47;;
5710;SDS011;61291;52.524;13.422;2023-07-22T01:14:00;187.03;;;172.33;;
5710;SDS011;61291;52.524;13.422;2023-07-22T01:16:27;181.20;;;166.43;;
5710;SDS011;61291;52.524;13.422;2023-07-22T01:18:53;157.07;;;143.67;;
5710;SDS011;61291;52.524;13.422;2023-07-22T01:21:19;182.73;;;167.67;;
5710;SDS011;61291;52.524;13.422;2023-07-22T01:23:47;177.93;;;163.77;;
5710;SDS011;61291;52.524;13.422;2023-07-22T01:26:13;167.90;;;153.40;;
5710;SDS011;61291;52.524;13.422;2023-07-22T01:28:39;182.23;;;166.70;;
5710;SDS011;61291;52.524;13.422;2023-07-22T01:31:05;173.60;;;159.50;;
5710;SDS011;61291;52.524;13.422;2023-07-22T01:33:31;169.00;;;155.40;;
5710;SDS011;61291;52.524;13.422;2023-07-22T01:35:57;171.50;;;157.17;;
5710;SDS011;61291;52.524;13.422;2023-07-22T01:38:23;172.57;;;158.63;;
5710;SDS011;61291;52.524;13.422;2023-07-22T01:40:48;159.63;;;146.47;;
5710;SDS011;61291;52.524;13.422;2023-07-22T01:43:14;161.73;;;148.50;;
5710;SDS011;61291;52.524;13.422;2023-07-22T01:45:39;173.30;;;159.33;;
5710;SDS011;61291;52.524;13.422;2023-07-22T01:48:05;161.87;;;148.63;;
5710;SDS011;61291;52.524;13.422;2023-07-22T01:50:31;164.43;;;151.30;;
5710;SDS011;61291;52.524;13.422;2023-07-22T01:52:57;184.70;;;170.30;;
5710;SDS011;61291;52.524;13.422;2023-07-22T01:55:22;174.27;;;160.40;;
5710;SDS011;61291;52.524;13.422;2023-07-22T01:57:48;156.40;;;143.40;;
5710;SDS011;61291;52.524;13.422;2023-07-22T02:00:14;164.57;;;151.43;;
5710;SDS011;61291;52.524;13.422;2023-07-22T02:02:40;156.47;;;143.37;;
5710;SDS011;61291;52.524;13.422;2023-07-22T02:05:06;160.20;;;147.80;;
5710;SDS011;61291;52.524;13.422;2023-07-22T02:07:33;160.30;;;146.30;;
5710;SDS011;61291;52.524;13.422;2023-07-22T02:09:59;178.80;;;164.80;;
5710;SDS011;61291;52.524;13.422;2023-07-22T02:12:24;167.73;;;153.13;;
5710;SDS011;61291;52.524;13.422;2023-07-22T02:14:50;167.40;;;154.17;;
5710;SDS011;61291;52.524;13.422;2023-07-22T02:17:15;167.93;;;154.93;;
5710;SDS011;61291;52.524;13.422;2023-07-22T02:19:41;165.53;;;152.90;;
5710;SDS011;61291;52.524;13.422;2023-07-22T02:22:06;167.47;;;154.70;;
5710;SDS011;61291;52.524;13.422;2023-07-22T02:24:32;170.47;;;157.13;;
5710;SDS011;61291;52.524;13.422;2023-07-22T02:26:58;170.13;;;156.87;;
5710;SDS011;61291;52.524;13.422;2023-07-22T02:29:24;160.70;;;147.93;;
5710;SDS011;61291;52.524;13.422;2023-07-22T02:31:49;161.23;;;148.80;;
5710;SDS011;61291;52.524;13.422;2023-07-22T02:34:15;181.03;;;167.47;;
5710;SDS011;61291;52.524;13.422;2023-07-22T02:36:41;169.47;;;155.93;;
5710;SDS011;61291;52.524;13.422;2023-07-22T02:39:07;168.93;;;156.03;;
5710;SDS011;61291;52.524;13.422;2023-07-22T02:41:34;173.33;;;159.43;;
5710;SDS011;61291;52.524;13.422;2023-07-22T02:44:01;162.37;;;149.77;;
5710;SDS011;61291;52.524;13.422;2023-07-22T02:46:28;167.70;;;154.33;;
5710;SDS011;61291;52.524;13.422;2023-07-22T02:48:53;162.93;;;150.73;;
5710;SDS011;61291;52.524;13.422;2023-07-22T02:51:19;177.33;;;164.17;;
5710;SDS011;61291;52.524;13.422;2023-07-22T02:53:45;154.83;;;143.13;;
5710;SDS011;61291;52.524;13.422;2023-07-22T02:56:12;154.37;;;142.40;;
5710;SDS011;61291;52.524;13.422;2023-07-22T02:58:37;155.73;;;143.73;;
5710;SDS011;61291;52.524;13.422;2023-07-22T03:01:03;179.87;;;166.53;;
5710;SDS011;61291;52.524;13.422;2023-07-22T03:03:30;167.87;;;154.83;;
5710;SDS011;61291;52.524;13.422;2023-07-22T03:05:58;175.87;;;161.00;;
5710;SDS011;61291;52.524;13.422;2023-07-22T03:08:24;175.30;;;160.27;;
5710;SDS011;61291;52.524;13.422;2023-07-22T03:10:50;168.30;;;154.67;;
5710;SDS011;61291;52.524;13.422;2023-07-22T03:13:15;187.43;;;173.73;;
5710;SDS011;61291;52.524;13.422;2023-07-22T03:15:41;165.50;;;152.30;;
5710;SDS011;61291;52.524;13.422;2023-07-22T03:18:07;171.90;;;157.63;;
5710;SDS011;61291;52.524;13.422;2023-07-22T03:20:34;157.83;;;145.83;;
5710;SDS011;61291;52.524;13.422;2023-07-22T03:23:03;160.70;;;147.90;;
5710;SDS011;61291;52.524;13.422;2023-07-22T03:25:30;152.63;;;140.30;;
5710;SDS011;61291;52.524;13.422;2023-07-22T03:27:56;175.90;;;160.67;;
5710;SDS011;61291;52.524;13.422;2023-07-22T03:30:21;158.03;;;145.30;;
5710;SDS011;61291;52.524;13.422;2023-07-22T03:32:48;148.27;;;136.43;;
5710;SDS011;61291;52.524;13.422;2023-07-22T03:35:15;173.23;;;160.13;;
5710;SDS011;61291;52.524;13.422;2023-07-22T03:37:42;165.70;;;152.67;;
5710;SDS011;61291;52.524;13.422;2023-07-22T03:40:08;172.83;;;159.73;;
5710;SDS011;61291;52.524;13.422;2023-07-22T03:42:52;149.77;;;137.10;;
5710;SDS011;61291;52.524;13.422;2023-07-22T03:45:20;165.70;;;152.60;;
5710;SDS011;61291;52.524;13.422;2023-07-22T03:47:46;173.37;;;159.23;;
5710;SDS011;61291;52.524;13.422;2023-07-22T03:50:17;165.00;;;151.20;;
5710;SDS011;61291;52.524;13.422;2023-07-22T03:52:43;176.50;;;162.50;;
5710;SDS011;61291;52.524;13.422;2023-07-22T03:55:08;170.10;;;156.40;;
5710;SDS011;61291;52.524;13.422;2023-07-22T03:57:34;170.53;;;157.07;;
5710;SDS011;61291;52.524;13.422;2023-07-22T03:59:59;181.13;;;167.50;;
5710;SDS011;61291;52.524;13.422;2023-07-22T04:02:25;169.50;;;156.37;;
5710;SDS011;61291;52.524;13.422;2023-07-22T04:04:52;173.10;;;159.63;;
5710;SDS011;61291;52.524;13.422;2023-07-22T04:07:18;195.43;;;181.33;;
5710;SDS011;61291;52.524;13.422;2023-07-22T04:09:44;176.53;;;162.10;;
5710;SDS011;61291;52.524;13.422;2023-07-22T04:12:12;188.63;;;174.87;;
5710;SDS011;61291;52.524;13.422;2023-07-22T04:14:38;180.93;;;167.13;;
5710;SDS011;61291;52.524;13.422;2023-07-22T04:17:03;183.37;;;169.07;;
5710;SDS011;61291;52.524;13.422;2023-07-22T04:19:29;165.80;;;152.33;;
5710;SDS011;61291;52.524;13.422;2023-07-22T04:21:55;171.57;;;158.47;;
5710;SDS011;61291;52.524;13.422;2023-07-22T04:24:20;181.97;;;167.00;;
5710;SDS011;61291;52.524;13.422;2023-07-22T04:26:46;164.63;;;151.37;;
5710;SDS011;61291;52.524;13.422;2023-07-22T04:29:12;180.53;;;166.77;;
5710;SDS011;61291;52.524;13.422;2023-07-22T04:31:38;168.10;;;154.50;;
5710;SDS011;61291;52.524;13.422;2023-07-22T04:34:03;177.43;;;163.53;;
5710;SDS011;61291;52.524;13.422;2023-07-22T04:36:30;160.30;;;147.37;;
5710;SDS011;61291;52.524;13.422;2023-07-22T04:38:56;189.40;;;175.17;;
5710;SDS011;61291;52.524;13.422;2023-07-22T04:41:21;161.30;;;148.30;;
5710;SDS011;61291;52.524;13.422;2023-07-22T04:43:47;176.70;;;162.70;;
5710;SDS011;61291;52.524;13.422;2023-07-22T04:46:12;185.30;;;170.50;;
5710;SDS011;61291;52.524;13.422;2023-07-22T04:48:38;181.80;;;167.43;;
5710;SDS011;61291;52.524;13.422;2023-07-22T04:51:04;178.50;;;164.50;;
5710;SDS011;61291;52.524;13.422;2023-07-22T04:53:29;209.90;;;194.10;;
5710;SDS011;61291;52.524;13.422;2023-07-22T04:55:55;178.90;;;164.50;;
5710;SDS011;61291;52.524;13.422;2023-07-22T04:58:20;184.93;;;170.43;;
5710;SDS011;61291;52.524;13.422;2023-07-22T05:00:46;200.37;;;183.87;;
5710;SDS011;61291;52.524;13.422;2023-07-22T05:03:13;183.00;;;168.10;;
5710;SDS011;61291;52.524;13.422;2023-07-22T05:05:39;187.17;;;171.97;;
5710;SDS011;61291;52.524;13.422;2023-07-22T05:08:04;186.07;;;170.67;;
5710;SDS011;61291;52.524;13.422;2023-07-22T05:10:32;188.47;;;172.93;;
5710;SDS011;61291;52.524;13.422;2023-07-22T05:12:57;207.83;;;191.10;;
5710;SDS011;61291;52.524;13.422;2023-07-22T05:15:23;177.63;;;163.00;;
5710;SDS011;61291;52.524;13.422;2023-07-22T05:17:48;199.37;;;183.63;;
5710;SDS011;61291;52.524;13.422;2023-07-22T05:20:14;208.57;;;193.03;;
5710;SDS011;61291;52.524;13.422;2023-07-22T05:22:39;214.63;;;197.87;;
5710;SDS011;61291;52.524;13.422;2023-07-22T05:25:06;203.23;;;186.40;;
5710;SDS011;61291;52.524;13.422;2023-07-22T05:27:32;201.17;;;185.67;;
5710;SDS011;61291;52.524;13.422;2023-07-22T05:29:58;213.20;;;196.90;;
5710;SDS011;61291;52.524;13.422;2023-07-22T05:32:24;196.77;;;180.87;;
5710;SDS011;61291;52.524;13.422;2023-07-22T05:34:50;201.13;;;185.50;;
5710;SDS011;61291;52.524;13.422;2023-07-22T05:37:15;218.10;;;201.50;;
5710;SDS011;61291;52.524;13.422;2023-07-22T05:39:41;202.17;;;186.27;;
5710;SDS011;61291;52.524;13.422;2023-07-22T05:42:06;227.50;;;210.33;;
5710;SDS011;61291;52.524;13.422;2023-07-22T05:44:32;228.33;;;210.73;;
5710;SDS011;61291;52.524;13.422;2023-07-22T05:46:57;218.53;;;202.17;;
5710;SDS011;61291;52.524;13.422;2023-07-22T05:49:23;226.80;;;209.20;;
5710;SDS011;61291;52.524;13.422;2023-07-22T05:51:49;216.07;;;198.50;;
5710;SDS011;61291;52.524;13.422;2023-07-22T05:54:14;217.53;;;200.17;;
5710;SDS011;61291;52.524;13.422;2023-07-22T05:56:40;224.93;;;206.67;;
5710;SDS011;61291;52.524;13.422;2023-07-22T05:59:06;234.70;;;216.50;;
5710;SDS011;61291;52.524;13.422;2023-07-22T06:01:37;236.97;;;219.07;;
5710;SDS011;61291;52.524;13.422;2023-07-22T06:04:03;243.37;;;224.37;;
5710;SDS011;61291;52.524;13.422;2023-07-22T06:06:29;238.70;;;219.80;;
5710;SDS011;61291;52.524;13.422;2023-07-22T06:08:55;218.70;;;201.57;;
5710;SDS011;61291;52.524;13.422;2023-07-22T06:11:21;227.03;;;208.67;;
5710;SDS011;61291;52.524;13.422;2023-07-22T06:13:49;229.30;;;211.03;;
5710;SDS011;61291;52.524;13.422;2023-07-22T06:16:14;239.27;;;219.63;;
5710;SDS011;61291;52.524;13.422;2023-07-22T06:18:40;214.33;;;196.23;;
5710;SDS011;61291;52.524;13.422;2023-07-22T06:21:05;237.67;;;218.67;;
5710;SDS011;61291;52.524;13.422;2023-07-22T06:23:31;241.20;;;222.03;;
5710;SDS011;61291;52.524;13.422;2023-07-22T06:25:57;250.13;;;229.33;;
5710;SDS011;61291;52.524;13.422;2023-07-22T06:28:22;236.90;;;217.47;;
5710;SDS011;61291;52.524;13.422;2023-07-22T06:30:54;228.73;;;208.97;;
5710;SDS011;61291;52.524;13.422;2023-07-22T06:33:19;234.83;;;214.80;;
5710;SDS011;61291;52.524;13.422;2023-07-22T06:35:44;258.20;;;235.80;;
5710;SDS011;61291;52.524;13.422;2023-07-22T06:38:10;250.30;;;227.67;;
5710;SDS011;61291;52.524;13.422;2023-07-22T06:40:36;245.33;;;224.30;;
5710;SDS011;61291;52.524;13.422;2023-07-22T06:43:01;249.60;;;227.57;;
5710;SDS011;61291;52.524;13.422;2023-07-22T06:45:27;256.40;;;234.40;;
5710;SDS011;61291;52.524;13.422;2023-07-22T06:47:52;255.23;;;232.13;;
5710;SDS011;61291;52.524;13.422;2023-07-22T06:50:18;255.00;;;232.53;;
5710;SDS011;61291;52.524;13.422;2023-07-22T06:52:44;262.70;;;239.57;;
5710;SDS011;61291;52.524;13.422;2023-07-22T06:55:09;251.00;;;228.60;;
5710;SDS011;61291;52.524;13.422;2023-07-22T06:57:34;221.27;;;201.57;;
5710;SDS011;61291;52.524;13.422;2023-07-22T07:00:02;261.77;;;238.57;;
5710;SDS011;61291;52.524;13.422;2023-07-22T07:02:27;264.83;;;242.83;;
5710;SDS011;61291;52.524;13.422;2023-07-22T07:04:53;257.23;;;235.03;;
5710;SDS011;61291;52.524;13.422;2023-07-22T07:07:18;252.60;;;232.10;;
5710;SDS011;61291;52.524;13.422;2023-07-22T07:09:44;247.97;;;226.10;;
5710;SDS011;61291;52.524;13.422;2023-07-22T07:12:10;254.60;;;232.90;;
5710;SDS011;61291;52.524;13.422;2023-07-22T07:14:35;268.53;;;244.70;;
5710;SDS011;61291;52.524;13.422;2023-07-22T07:17:01;260.07;;;237.77;;
5710;SDS011;61291;52.524;13.422;2023-07-22T07:19:27;243.53;;;222.43;;
5710;SDS011;61291;52.524;13.422;2023-07-22T07:21:52;262.07;;;240.07;;
5710;SDS011;61291;52.524;13.422;2023-07-22T07:24:18;260.67;;;238.63;;
5710;SDS011;61291;52.524;13.422;2023-07-22T07:26:44;260.67;;;238.20;;
5710;SDS011;61291;52.524;13.422;2023-07-22T07:29:09;259.00;;;237.30;;
5710;SDS011;61291;52.524;13.422;2023-07-22T07:31:35;257.30;;;235.60;;
5710;SDS011;61291;52.524;13.422;2023-07-22T07:34:01;261.07;;;238.60;;
5710;SDS011;61291;52.524;13.422;2023-07-22T07:36:27;255.97;;;234.20;;
5710;SDS011;61291;52.524;13.422;2023-07-22T07:38:52;236.18;;;214.75;;
5710;SDS011;61291;52.524;13.422;2023-07-22T07:41:18;250.13;;;227.93;;
5710;SDS011;61291;52.524;13.422;2023-07-22T07:43:43;267.53;;;243.87;;
5710;SDS011;61291;52.524;13.422;2023-07-22T07:46:22;248.67;;;227.07;;
5710;SDS011;61291;52.524;13.422;2023-07-22T07:48:53;251.90;;;231.00;;
5710;SDS011;61291;52.524;13.422;2023-07-22T07:51:25;267.17;;;244.70;;
5710;SDS011;61291;52.524;13.422;2023-07-22T07:53:52;255.67;;;234.40;;
5710;SDS011;61291;52.524;13.422;2023-07-22T07:56:19;260.37;;;237.63;;
5710;SDS011;61291;52.524;13.422;2023-07-22T07:58:45;243.80;;;222.33;;
5710;SDS011;61291;52.524;13.422;2023-07-22T08:01:11;257.90;;;234.80;;
5710;SDS011;61291;52.524;13.422;2023-07-22T08:03:37;278.43;;;253.53;;
5710;SDS011;61291;52.524;13.422;2023-07-22T08:06:04;266.07;;;243.40;;
5710;SDS011;61291;52.524;13.422;2023-07-22T08:08:29;254.63;;;233.27;;
5710;SDS011;61291;52.524;13.422;2023-07-22T08:10:58;224.47;;;205.27;;
5710;SDS011;61291;52.524;13.422;2023-07-22T08:13:32;253.07;;;231.57;;
5710;SDS011;61291;52.524;13.422;2023-07-22T08:15:59;243.17;;;220.73;;
5710;SDS011;61291;52.524;13.422;2023-07-22T08:18:28;253.50;;;230.47;;
5710;SDS011;61291;52.524;13.422;2023-07-22T08:20:54;241.13;;;219.80;;
5710;SDS011;61291;52.524;13.422;2023-07-22T08:23:20;263.77;;;240.03;;
5710;SDS011;61291;52.524;13.422;2023-07-22T08:25:46;261.10;;;238.30;;
5710;SDS011;61291;52.524;13.422;2023-07-22T08:28:12;242.57;;;220.33;;
5710;SDS011;61291;52.524;13.422;2023-07-22T08:30:37;250.23;;;228.10;;
5710;SDS011;61291;52.524;13.422;2023-07-22T08:33:05;229.77;;;208.57;;
5710;SDS011;61291;52.524;13.422;2023-07-22T08:35:33;247.73;;;226.47;;
5710;SDS011;61291;52.524;13.422;2023-07-22T08:37:59;256.27;;;233.07;;
5710;SDS011;61291;52.524;13.422;2023-07-22T08:40:25;260.23;;;237.40;;
5710;SDS011;61291;52.524;13.422;2023-07-22T08:42:50;234.07;;;213.70;;
5710;SDS011;61291;52.524;13.422;2023-07-22T08:45:17;240.73;;;218.97;;
5710;SDS011;61291;52.524;13.422;2023-07-22T08:47:45;246.53;;;225.23;;
5710;SDS011;61291;52.524;13.422;2023-07-22T08:50:11;237.27;;;215.97;;
5710;SDS011;61291;52.524;13.422;2023-07-22T08:52:47;234.03;;;213.40;;
5710;SDS011;61291;52.524;13.422;2023-07-22T08:55:13;253.03;;;232.10;;
5710;SDS011;61291;52.524;13.422;2023-07-22T08:57:39;258.43;;;236.20;;
5710;SDS011;61291;52.524;13.422;2023-07-22T09:00:06;267.27;;;243.80;;
5710;SDS011;61291;52.524;13.422;2023-07-22T09:02:35;245.63;;;223.70;;
5710;SDS011;61291;52.524;13.422;2023-07-22T09:05:02;214.17;;;195.13;;
5710;SDS011;61291;52.524;13.422;2023-07-22T09:07:28;238.90;;;216.70;;
5710;SDS011;61291;52.524;13.422;2023-07-22T09:09:54;251.27;;;229.70;;
5710;SDS011;61291;52.524;13.422;2023-07-22T09:12:20;229.80;;;210.93;;
5710;SDS011;61291;52.524;13.422;2023-07-22T09:14:46;229.37;;;211.10;;
5710;SDS011;61291;52.524;13.422;2023-07-22T09:17:12;212.37;;;195.10;;
5710;SDS011;61291;52.524;13.422;2023-07-22T09:19:38;226.03;;;207.93;;
5710;SDS011;61291;52.524;13.422;2023-07-22T09:22:03;233.87;;;215.23;;
5710;SDS011;61291;52.524;13.422;2023-07-22T09:24:29;216.27;;;199.40;;
5710;SDS011;61291;52.524;13.422;2023-07-22T09:26:55;232.23;;;213.43;;
5710;SDS011;61291;52.524;13.422;2023-07-22T09:29:35;213.17;;;196.03;;
5710;SDS011;61291;52.524;13.422;2023-07-22T09:32:02;218.57;;;200.60;;
5710;SDS011;61291;52.524;13.422;2023-07-22T09:34:28;234.33;;;214.80;;
5710;SDS011;61291;52.524;13.422;2023-07-22T09:36:54;222.73;;;204.97;;
5710;SDS011;61291;52.524;13.422;2023-07-22T09:39:22;188.90;;;173.75;;
5710;SDS011;61291;52.524;13.422;2023-07-22T09:41:51;198.50;;;183.27;;
5710;SDS011;61291;52.524;13.422;2023-07-22T09:44:19;215.10;;;197.77;;
5710;SDS011;61291;52.524;13.422;2023-07-22T09:46:51;200.57;;;185.87;;
5710;SDS011;61291;52.524;13.422;2023-07-22T09:49:17;182.93;;;168.43;;
5710;SDS011;61291;52.524;13.422;2023-07-22T09:51:43;197.50;;;182.17;;
5710;SDS011;61291;52.524;13.422;2023-07-22T09:54:09;190.97;;;176.93;;
5710;SDS011;61291;52.524;13.422;2023-07-22T09:56:45;182.40;;;168.40;;
5710;SDS011;61291;52.524;13.422;2023-07-22T09:59:11;192.73;;;176.83;;
5710;SDS011;61291;52.524;13.422;2023-07-22T10:01:38;185.17;;;171.40;;
5710;SDS011;61291;52.524;13.422;2023-07-22T10:04:05;184.30;;;170.00;;
5710;SDS011;61291;52.524;13.422;2023-07-22T10:06:31;185.23;;;171.43;;
5710;SDS011;61291;52.524;13.422;2023-07-22T10:09:00;155.27;;;143.40;;
5710;SDS011;61291;52.524;13.422;2023-07-22T10:11:28;122.43;;;114.63;;
5710;SDS011;61291;52.524;13.422;2023-07-22T10:13:55;104.20;;;97.40;;
5710;SDS011;61291;52.524;13.422;2023-07-22T10:16:22;84.00;;;77.83;;
5710;SDS011;61291;52.524;13.422;2023-07-22T10:18:48;77.80;;;72.30;;
5710;SDS011;61291;52.524;13.422;2023-07-22T10:21:14;74.60;;;68.93;;
5710;SDS011;61291;52.524;13.422;2023-07-22T10:23:40;76.17;;;70.70;;
5710;SDS011;61291;52.524;13.422;2023-07-22T10:26:05;66.27;;;62.07;;
5710;SDS011;61291;52.524;13.422;2023-07-22T10:28:32;72.17;;;67.10;;
5710;SDS011;61291;52.524;13.422;2023-07-22T10:30:58;64.50;;;59.90;;
5710;SDS011;61291;52.524;13.422;2023-07-22T10:33:24;65.13;;;60.90;;
5710;SDS011;61291;52.524;13.422;2023-07-22T10:36:04;69.67;;;64.60;;
5710;SDS011;61291;52.524;13.422;2023-07-22T10:38:34;71.03;;;66.03;;
5710;SDS011;61291;52.524;13.422;2023-07-22T10:41:00;68.93;;;63.53;;
5710;SDS011;61291;52.524;13.422;2023-07-22T10:43:27;77.67;;;72.20;;
5710;SDS011;61291;52.524;13.422;2023-07-22T10:45:56;60.50;;;56.20;;
5710;SDS011;61291;52.524;13.422;2023-07-22T10:48:26;68.53;;;63.87;;
5710;SDS011;61291;52.524;13.422;2023-07-22T10:51:04;76.73;;;71.53;;
5710;SDS011;61291;52.524;13.422;2023-07-22T10:53:30;64.93;;;60.50;;
5710;SDS011;61291;52.524;13.422;2023-07-22T11:04:07;67.63;;;63.03;;
5710;SDS011;61291;52.524;13.422;2023-07-22T11:12:06;65.03;;;60.43;;
5710;SDS011;61291;52.524;13.422;2023-07-22T11:17:31;66.00;;;61.60;;
5710;SDS011;61291;52.524;13.422;2023-07-22T11:19:58;69.00;;;64.03;;
5710;SDS011;61291;52.524;13.422;2023-07-22T11:22:24;67.60;;;63.07;;
5710;SDS011;61291;52.524;13.422;2023-07-22T11:24:50;71.67;;;66.87;;
5710;SDS011;61291;52.524;13.422;2023-07-22T11:27:16;81.17;;;75.50;;
5710;SDS011;61291;52.524;13.422;2023-07-22T11:29:41;71.17;;;66.17;;
5710;SDS011;61291;52.524;13.422;2023-07-22T11:32:14;73.43;;;68.03;;
5710;SDS011;61291;52.524;13.422;2023-07-22T11:34:41;75.17;;;69.93;;
5710;SDS011;61291;52.524;13.422;2023-07-22T11:37:09;78.17;;;72.80;;
5710;SDS011;61291;52.524;13.422;2023-07-22T11:39:35;72.10;;;67.20;;
5710;SDS011;61291;52.524;13.422;2023-07-22T11:42:02;75.33;;;70.10;;
5710;SDS011;61291;52.524;13.422;2023-07-22T11:44:29;65.50;;;60.90;;
5710;SDS011;61291;52.524;13.422;2023-07-22T11:47:05;69.60;;;64.87;;
5710;SDS011;61291;52.524;13.422;2023-07-22T11:49:35;73.23;;;67.80;;
5710;SDS011;61291;52.524;13.422;2023-07-22T11:52:05;71.90;;;66.83;;
5710;SDS011;61291;52.524;13.422;2023-07-22T11:54:39;81.17;;;74.77;;
5710;SDS011;61291;52.524;13.422;2023-07-22T11:57:13;68.87;;;64.30;;
5710;SDS011;61291;52.524;13.422;2023-07-22T11:59:39;83.27;;;77.67;;
5710;SDS011;61291;52.524;13.422;2023-07-22T12:02:17;78.43;;;73.03;;
5710;SDS011;61291;52.524;13.422;2023-07-22T12:04:56;77.17;;;71.67;;
5710;SDS011;61291;52.524;13.422;2023-07-22T12:07:29;67.20;;;63.00;;
5710;SDS011;61291;52.524;13.422;2023-07-22T12:09:59;74.73;;;69.73;;
5710;SDS011;61291;52.524;13.422;2023-07-22T12:12:35;82.03;;;76.47;;
5710;SDS011;61291;52.524;13.422;2023-07-22T12:15:02;61.33;;;57.23;;
5710;SDS011;61291;52.524;13.422;2023-07-22T12:17:54;71.60;;;66.40;;
5710;SDS011;61291;52.524;13.422;2023-07-22T12:20:26;69.90;;;65.13;;
5710;SDS011;61291;52.524;13.422;2023-07-22T12:22:57;75.97;;;70.93;;
5710;SDS011;61291;52.524;13.422;2023-07-22T12:25:24;58.83;;;54.35;;
5710;SDS011;61291;52.524;13.422;2023-07-22T12:27:50;61.80;;;57.60;;
5710;SDS011;61291;52.524;13.422;2023-07-22T12:30:15;71.40;;;66.20;;
5710;SDS011;61291;52.524;13.422;2023-07-22T12:32:41;72.30;;;67.10;;
5710;SDS011;61291;52.524;13.422;2023-07-22T12:35:07;64.67;;;59.77;;
5710;SDS011;61291;52.524;13.422;2023-07-22T12:37:33;67.90;;;63.03;;
5710;SDS011;61291;52.524;13.422;2023-07-22T12:39:59;67.07;;;62.37;;
5710;SDS011;61291;52.524;13.422;2023-07-22T12:42:24;60.73;;;56.73;;
5710;SDS011;61291;52.524;13.422;2023-07-22T12:44:50;64.57;;;60.33;;
5710;SDS011;61291;52.524;13.422;2023-07-22T12:47:16;66.47;;;61.97;;
5710;SDS011;61291;52.524;13.422;2023-07-22T12:49:41;72.10;;;66.90;;
5710;SDS011;61291;52.524;13.422;2023-07-22T12:52:07;70.30;;;65.50;;
5710;SDS011;61291;52.524;13.422;2023-07-22T12:54:37;74.97;;;69.03;;
5710;SDS011;61291;52.524;13.422;2023-07-22T12:57:03;63.80;;;59.40;;
5710;SDS011;61291;52.524;13.422;2023-07-22T12:59:29;65.13;;;60.53;;
5710;SDS011;61291;52.524;13.422;2023-07-22T13:01:55;75.70;;;70.70;;
5710;SDS011;61291;52.524;13.422;2023-07-22T13:04:22;71.90;;;66.60;;
5710;SDS011;61291;52.524;13.422;2023-07-22T13:06:47;60.13;;;56.08;;
5710;SDS011;61291;52.524;13.422;2023-07-22T13:09:14;72.80;;;68.10;;
5710;SDS011;61291;52.524;13.422;2023-07-22T13:11:39;79.73;;;74.37;;
5710;SDS011;61291;52.524;13.422;2023-07-22T13:14:05;73.63;;;68.53;;
5710;SDS011;61291;52.524;13.422;2023-07-22T13:16:30;76.73;;;71.63;;
5710;SDS011;61291;52.524;13.422;2023-07-22T13:18:56;73.30;;;68.30;;
5710;SDS011;61291;52.524;13.422;2023-07-22T13:21:25;73.93;;;68.50;;
5710;SDS011;61291;52.524;13.422;2023-07-22T13:23:51;71.57;;;66.50;;
5710;SDS011;61291;52.524;13.422;2023-07-22T13:26:16;63.37;;;59.13;;
5710;SDS011;61291;52.524;13.422;2023-07-22T13:28:42;65.70;;;61.30;;
5710;SDS011;61291;52.524;13.422;2023-07-22T13:31:07;57.97;;;53.87;;
5710;SDS011;61291;52.524;13.422;2023-07-22T13:33:33;69.00;;;64.20;;
5710;SDS011;61291;52.524;13.422;2023-07-22T13:35:58;75.47;;;70.20;;
5710;SDS011;61291;52.524;13.422;2023-07-22T13:38:23;77.07;;;71.87;;
5710;SDS011;61291;52.524;13.422;2023-07-22T13:40:49;55.75;;;51.85;;
5710;SDS011;61291;52.524;13.422;2023-07-22T13:43:14;67.80;;;63.30;;
5710;SDS011;61291;52.524;13.422;2023-07-22T13:45:40;77.00;;;71.63;;
5710;SDS011;61291;52.524;13.422;2023-07-22T13:48:06;74.97;;;69.30;;
5710;SDS011;61291;52.524;13.422;2023-07-22T13:50:31;62.93;;;58.53;;
5710;SDS011;61291;52.524;13.422;2023-07-22T13:52:57;77.17;;;71.77;;
5710;SDS011;61291;52.524;13.422;2023-07-22T13:55:22;67.23;;;61.97;;
5710;SDS011;61291;52.524;13.422;2023-07-22T13:57:48;74.27;;;69.60;;
5710;SDS011;61291;52.524;13.422;2023-07-22T14:00:13;70.27;;;65.57;;
5710;SDS011;61291;52.524;13.422;2023-07-22T14:02:39;66.87;;;62.47;;
5710;SDS011;61291;52.524;13.422;2023-07-22T14:05:05;69.50;;;64.80;;
5710;SDS011;61291;52.524;13.422;2023-07-22T14:07:32;69.57;;;64.77;;
5710;SDS011;61291;52.524;13.422;2023-07-22T14:09:57;67.00;;;62.47;;
5710;SDS011;61291;52.524;13.422;2023-07-22T14:12:23;70.50;;;66.00;;
5710;SDS011;61291;52.524;13.422;2023-07-22T14:14:48;59.87;;;55.77;;
5710;SDS011;61291;52.524;13.422;2023-07-22T14:17:14;74.77;;;69.83;;